Time;durP1;ratioP1;P1;durP2;ratioP2;P2;SDS_P1;SDS_P2;PMS_P1;PMS_P2;Temp;Humidity;BMP_temperature;BMP_pressure;BME280_temperature;BME280_humidity;BME280_pressure;Samples;Min_cycle;Max_cycle;Signal;HPM_P1;HPM_P2
2023/03/25 00:00:57;;;;;;;6.35;3.10;;;19.30;50.70;;;;;;4976573;28;20273;-78
2023/03/25 00:09:45;;;;;;;6.85;3.92;;;19.20;51.00;;;;;;4968333;23;20780;-67
2023/03/25 00:12:13;;;;;;;6.55;2.97;;;19.20;51.50;;;;;;4960047;29;20230;-67
2023/03/25 00:14:41;;;;;;;6.10;2.90;;;19.20;51.30;;;;;;4955841;28;20298;-67
2023/03/25 00:17:12;;;;;;;7.13;3.30;;;19.20;51.10;;;;;;4955745;28;20681;-67
2023/03/25 00:19:40;;;;;;;5.20;2.80;;;19.20;51.20;;;;;;4955675;29;20587;-67
2023/03/25 00:22:07;;;;;;;5.28;2.90;;;19.20;51.00;;;;;;4938008;29;20203;-67
2023/03/25 00:24:34;;;;;;;6.32;2.90;;;19.20;50.70;;;;;;4938137;29;20331;-66
2023/03/25 00:27:02;;;;;;;4.45;2.58;;;19.20;50.60;;;;;;4955519;28;20198;-66
2023/03/25 00:29:30;;;;;;;6.88;3.13;;;19.20;50.60;;;;;;4938088;29;20198;-67
2023/03/25 00:31:57;;;;;;;4.13;2.72;;;19.10;50.40;;;;;;4938065;29;20402;-66
2023/03/25 00:34:25;;;;;;;4.63;2.60;;;19.10;50.30;;;;;;4937968;28;20215;-66
2023/03/25 00:36:52;;;;;;;5.38;2.67;;;19.10;50.40;;;;;;4938028;29;20207;-66
2023/03/25 00:39:20;;;;;;;5.50;2.60;;;19.10;50.40;;;;;;4955330;29;20195;-67
2023/03/25 00:41:47;;;;;;;5.82;2.80;;;19.10;50.30;;;;;;4937791;29;20722;-67
2023/03/25 00:44:16;;;;;;;4.68;2.80;;;19.10;50.40;;;;;;4955355;28;20266;-66
2023/03/25 00:46:43;;;;;;;4.55;2.85;;;19.10;50.40;;;;;;4937903;29;20206;-66
2023/03/25 00:49:11;;;;;;;5.35;2.63;;;19.10;50.40;;;;;;4955121;28;20204;-67
2023/03/25 00:51:39;;;;;;;3.92;2.40;;;19.10;50.50;;;;;;4937984;29;20195;-67
2023/03/25 00:54:07;;;;;;;5.82;2.28;;;19.00;50.40;;;;;;4938021;28;20654;-66
2023/03/25 00:56:34;;;;;;;3.83;2.30;;;19.00;50.40;;;;;;4937896;29;20229;-67
2023/03/25 00:59:01;;;;;;;5.18;2.55;;;19.00;50.40;;;;;;4955046;28;20265;-67
2023/03/25 01:01:28;;;;;;;4.15;2.65;;;19.00;50.40;;;;;;4937866;29;20203;-66
2023/03/25 01:03:57;;;;;;;3.95;2.22;;;19.00;50.50;;;;;;4937830;29;20202;-66
2023/03/25 01:06:27;;;;;;;3.75;2.40;;;19.00;50.40;;;;;;4954880;28;20203;-67
2023/03/25 01:08:56;;;;;;;5.10;2.35;;;19.00;50.50;;;;;;4937616;28;20194;-66
2023/03/25 01:11:25;;;;;;;3.53;2.20;;;18.90;50.50;;;;;;4955007;29;20190;-67
2023/03/25 01:13:52;;;;;;;3.72;2.38;;;18.90;50.40;;;;;;4937594;29;20261;-66
2023/03/25 01:16:19;;;;;;;2.92;2.10;;;18.90;50.40;;;;;;4954707;28;20214;-67
2023/03/25 01:18:46;;;;;;;3.05;1.98;;;18.90;50.50;;;;;;4954643;28;20191;-67
2023/03/25 01:21:13;;;;;;;4.28;2.30;;;18.90;50.50;;;;;;4939867;29;20579;-66
2023/03/25 01:23:41;;;;;;;4.55;2.05;;;18.80;50.30;;;;;;4941496;29;20297;-67
2023/03/25 01:26:09;;;;;;;3.60;2.10;;;18.90;50.50;;;;;;4958664;28;20270;-67
2023/03/25 01:28:39;;;;;;;2.97;2.03;;;18.80;50.30;;;;;;4941282;29;20190;-67
2023/03/25 01:31:07;;;;;;;3.15;2.03;;;18.80;50.40;;;;;;4941290;29;20202;-66
2023/03/25 01:33:35;;;;;;;4.07;2.15;;;18.80;50.30;;;;;;4941350;29;20298;-67
2023/03/25 01:36:02;;;;;;;2.92;2.15;;;18.80;50.30;;;;;;4941055;29;20226;-67
2023/03/25 01:38:29;;;;;;;2.95;1.90;;;18.80;50.30;;;;;;4941167;29;20302;-67
2023/03/25 01:40:57;;;;;;;3.22;1.90;;;18.80;50.20;;;;;;4958275;28;20191;-68
2023/03/25 01:43:25;;;;;;;3.03;2.05;;;18.80;50.30;;;;;;4958308;29;20195;-67
2023/03/25 01:45:52;;;;;;;2.75;1.90;;;18.70;50.10;;;;;;4941270;29;20226;-67
2023/03/25 01:48:23;;;;;;;3.63;1.92;;;18.70;50.20;;;;;;4958433;29;20254;-67
2023/03/25 01:50:52;;;;;;;3.38;2.17;;;18.70;50.30;;;;;;4941068;29;20708;-67
2023/03/25 01:53:19;;;;;;;5.70;2.45;;;18.70;50.30;;;;;;4940889;29;20205;-66
2023/03/25 01:55:48;;;;;;;4.07;2.03;;;18.70;50.30;;;;;;4940646;29;20219;-67
2023/03/25 01:58:16;;;;;;;3.13;2.00;;;18.60;50.20;;;;;;4958068;28;20222;-67
2023/03/25 02:00:44;;;;;;;3.08;1.60;;;18.60;50.10;;;;;;4940936;29;20761;-66
2023/03/25 02:03:12;;;;;;;3.85;2.20;;;18.60;50.20;;;;;;4940721;29;20649;-67
2023/03/25 02:05:42;;;;;;;3.28;1.90;;;18.60;50.40;;;;;;4940640;29;20716;-67
2023/03/25 02:08:09;;;;;;;4.32;2.05;;;18.60;50.40;;;;;;4958137;29;20555;-67
2023/03/25 02:10:37;;;;;;;3.90;1.98;;;18.60;50.20;;;;;;4940490;29;20206;-66
2023/03/25 02:13:05;;;;;;;2.58;2.03;;;18.60;50.30;;;;;;4940735;29;20297;-67
2023/03/25 02:15:37;;;;;;;3.03;1.80;;;18.60;50.30;;;;;;4940613;29;20648;-67
2023/03/25 02:18:22;;;;;;;3.10;1.85;;;18.60;50.30;;;;;;4940719;29;20202;-66
2023/03/25 02:21:23;;;;;;;4.30;2.00;;;18.50;50.30;;;;;;4940527;29;20208;-67
2023/03/25 02:24:28;;;;;;;3.20;1.80;;;18.50;50.30;;;;;;4957681;28;20238;-67
2023/03/25 02:27:32;;;;;;;4.80;2.00;;;18.50;50.20;;;;;;4940328;29;20203;-67
2023/03/25 02:30:26;;;;;;;3.78;2.05;;;18.50;50.30;;;;;;4934697;29;20209;-67
2023/03/25 02:33:20;;;;;;;4.88;1.80;;;18.50;50.30;;;;;;4954471;28;20285;-67
2023/03/25 02:36:13;;;;;;;3.03;1.90;;;18.50;50.50;;;;;;4941089;29;20671;-68
2023/03/25 02:38:42;;;;;;;3.47;1.83;;;18.50;50.30;;;;;;4941782;29;20191;-67
2023/03/25 02:41:12;;;;;;;3.00;1.60;;;18.40;50.40;;;;;;4941076;29;20673;-66
2023/03/25 02:43:41;;;;;;;3.08;1.80;;;18.40;50.40;;;;;;4941026;29;20228;-66
2023/03/25 02:46:11;;;;;;;2.30;1.60;;;18.40;50.50;;;;;;4940938;29;20219;-67
2023/03/25 02:48:43;;;;;;;2.33;1.75;;;18.40;50.60;;;;;;4948783;23;20677;-81
2023/03/25 02:51:12;;;;;;;3.00;2.05;;;18.40;50.70;;;;;;4923763;29;20258;-81
2023/03/25 02:53:39;;;;;;;2.97;1.73;;;18.30;50.70;;;;;;4908332;29;20200;-81
2023/03/25 02:56:10;;;;;;;3.10;1.70;;;18.40;50.90;;;;;;4924801;29;20235;-81
2023/03/25 02:58:38;;;;;;;3.67;2.05;;;18.40;51.10;;;;;;4923659;29;20294;-81
2023/03/25 03:01:08;;;;;;;2.05;1.55;;;18.30;51.00;;;;;;4923733;29;20685;-81
2023/03/25 03:03:36;;;;;;;2.83;1.98;;;18.30;50.70;;;;;;4923923;29;20274;-81
2023/03/25 03:06:04;;;;;;;3.65;1.92;;;18.30;51.00;;;;;;4922480;29;20589;-81
2023/03/25 03:08:40;;;;;;;2.72;1.67;;;18.30;51.00;;;;;;4923564;29;20658;-81
2023/03/25 03:11:13;;;;;;;2.45;1.73;;;18.30;50.70;;;;;;4923809;29;20278;-81
2023/03/25 03:13:58;;;;;;;1.95;1.50;;;18.30;50.80;;;;;;4908921;29;20212;-82
2023/03/25 03:16:30;;;;;;;2.65;1.50;;;18.30;50.70;;;;;;4923307;29;20235;-81
2023/03/25 03:19:01;;;;;;;3.58;1.80;;;18.30;50.80;;;;;;4922277;29;20263;-82
2023/03/25 03:21:29;;;;;;;2.28;1.67;;;18.30;50.80;;;;;;4922872;29;20199;-81
2023/03/25 03:23:59;;;;;;;1.80;1.38;;;18.30;50.70;;;;;;4923732;29;20209;-81
2023/03/25 03:26:31;;;;;;;2.67;1.45;;;18.30;50.70;;;;;;4912720;29;20219;-81
2023/03/25 03:29:00;;;;;;;2.03;1.55;;;18.30;50.70;;;;;;4922321;29;20204;-81
2023/03/25 03:31:29;;;;;;;2.17;1.42;;;18.30;50.70;;;;;;4921981;29;20223;-81
2023/03/25 03:33:59;;;;;;;2.55;1.65;;;18.30;50.60;;;;;;4921268;29;20203;-81
2023/03/25 03:36:28;;;;;;;2.67;1.70;;;18.30;50.50;;;;;;4921534;29;20597;-81
2023/03/25 03:38:58;;;;;;;2.47;1.52;;;18.30;50.50;;;;;;4921166;29;20203;-81
2023/03/25 03:41:26;;;;;;;1.70;1.58;;;18.30;50.70;;;;;;4921867;29;20206;-81
2023/03/25 03:43:56;;;;;;;2.75;1.73;;;18.30;50.50;;;;;;4920937;29;20298;-81
2023/03/25 03:46:24;;;;;;;3.10;1.55;;;18.30;50.50;;;;;;4921265;29;20366;-81
2023/03/25 03:48:53;;;;;;;1.88;1.40;;;18.20;50.30;;;;;;4920817;29;20208;-81
2023/03/25 03:51:21;;;;;;;1.90;1.50;;;18.20;50.30;;;;;;4921327;29;20223;-81
2023/03/25 03:53:50;;;;;;;2.25;1.40;;;18.20;50.30;;;;;;4921352;29;20336;-81
2023/03/25 03:56:20;;;;;;;2.08;1.50;;;18.20;50.60;;;;;;4921773;29;20338;-81
2023/03/25 03:58:49;;;;;;;1.80;1.50;;;18.30;50.30;;;;;;4922949;29;20214;-81
2023/03/25 04:01:29;;;;;;;1.45;1.30;;;18.20;50.10;;;;;;4922633;29;20203;-81
2023/03/25 04:03:57;;;;;;;1.73;1.45;;;18.20;50.50;;;;;;4921899;29;20569;-81
2023/03/25 04:06:26;;;;;;;1.42;1.33;;;18.20;50.00;;;;;;4921156;29;20211;-81
2023/03/25 04:08:57;;;;;;;1.58;1.40;;;18.20;50.00;;;;;;4921655;29;20680;-81
2023/03/25 04:11:25;;;;;;;3.35;1.52;;;18.20;50.00;;;;;;4920839;29;20729;-81
2023/03/25 04:13:52;;;;;;;1.55;1.45;;;18.20;50.00;;;;;;4920510;29;20270;-81
2023/03/25 04:16:21;;;;;;;2.60;1.40;;;18.20;49.90;;;;;;4920706;29;20231;-81
2023/03/25 04:18:52;;;;;;;1.92;1.40;;;18.20;50.00;;;;;;4920763;29;20207;-81
2023/03/25 04:21:20;;;;;;;1.80;1.50;;;18.20;50.00;;;;;;4920552;29;20246;-80
2023/03/25 04:23:48;;;;;;;1.30;1.20;;;18.20;50.00;;;;;;4920991;29;20210;-80
2023/03/25 04:26:16;;;;;;;1.63;1.35;;;18.20;49.90;;;;;;4904901;29;20249;-80
2023/03/25 04:28:44;;;;;;;1.50;1.20;;;18.10;49.80;;;;;;4920513;29;20210;-81
2023/03/25 04:31:14;;;;;;;1.40;1.30;;;18.20;49.80;;;;;;4920555;29;20210;-82
2023/03/25 04:33:45;;;;;;;1.40;1.30;;;18.20;49.90;;;;;;4920082;29;20192;-81
2023/03/25 04:36:13;;;;;;;1.65;1.20;;;18.20;50.00;;;;;;4920190;29;20322;-81
2023/03/25 04:38:44;;;;;;;1.80;1.30;;;18.20;50.00;;;;;;4920198;29;20688;-82
2023/03/25 04:41:12;;;;;;;1.75;1.33;;;18.20;50.10;;;;;;4920629;29;20207;-82
2023/03/25 04:43:40;;;;;;;2.78;1.50;;;18.20;49.90;;;;;;4923162;29;20242;-82
2023/03/25 04:46:09;;;;;;;1.75;1.30;;;18.20;49.80;;;;;;4924368;29;20261;-82
2023/03/25 04:48:40;;;;;;;1.80;1.40;;;18.20;49.80;;;;;;4924579;29;20544;-81
2023/03/25 04:51:11;;;;;;;1.42;1.20;;;18.20;49.80;;;;;;4924172;29;20658;-81
2023/03/25 04:53:38;;;;;;;1.55;1.42;;;18.20;49.80;;;;;;4924504;29;20211;-81
2023/03/25 04:56:11;;;;;;;2.15;1.30;;;18.20;50.30;;;;;;4924046;29;20254;-81
2023/03/25 04:58:59;;;;;;;1.73;1.35;;;18.20;49.80;;;;;;4941313;29;20325;-81
2023/03/25 05:01:29;;;;;;;2.45;1.60;;;18.20;49.50;;;;;;4908285;29;20275;-81
2023/03/25 05:04:03;;;;;;;1.30;1.20;;;18.20;49.50;;;;;;4924306;29;20644;-81
2023/03/25 05:06:33;;;;;;;1.25;1.10;;;18.20;49.40;;;;;;4920245;29;20314;-81
2023/03/25 05:09:03;;;;;;;2.17;1.15;;;18.30;49.50;;;;;;4920313;29;20227;-81
2023/03/25 05:11:30;;;;;;;1.30;1.20;;;18.20;49.20;;;;;;4922418;29;20199;-81
2023/03/25 05:13:57;;;;;;;1.92;1.30;;;18.30;49.30;;;;;;4923106;29;20239;-81
2023/03/25 05:16:24;;;;;;;2.33;1.25;;;18.20;49.20;;;;;;4920931;29;20295;-81
2023/03/25 05:18:51;;;;;;;2.17;1.30;;;18.20;49.20;;;;;;4920837;29;20207;-81
2023/03/25 05:21:18;;;;;;;1.65;1.33;;;18.20;49.20;;;;;;4920153;29;20203;-82
2023/03/25 05:23:47;;;;;;;1.00;0.80;;;18.20;49.30;;;;;;4919777;29;20228;-82
2023/03/25 05:26:14;;;;;;;1.30;1.20;;;18.20;49.20;;;;;;4920144;29;20223;-81
2023/03/25 05:28:42;;;;;;;1.23;1.10;;;18.20;49.40;;;;;;4920162;29;20206;-81
2023/03/25 05:31:09;;;;;;;1.30;1.20;;;18.20;49.20;;;;;;4920426;29;20575;-81
2023/03/25 05:33:41;;;;;;;1.15;1.00;;;18.20;49.40;;;;;;4904478;29;20204;-81
2023/03/25 05:36:10;;;;;;;2.40;1.20;;;18.20;49.60;;;;;;4919845;29;20219;-81
2023/03/25 05:38:40;;;;;;;1.80;1.05;;;18.20;49.50;;;;;;4936832;29;20191;-81
2023/03/25 05:41:09;;;;;;;1.92;1.02;;;18.20;49.60;;;;;;4919804;29;20596;-80
2023/03/25 05:43:37;;;;;;;1.52;1.27;;;18.20;49.60;;;;;;4919809;29;20728;-80
2023/03/25 05:46:04;;;;;;;1.65;1.38;;;18.10;49.40;;;;;;4919855;29;20219;-80
2023/03/25 05:48:31;;;;;;;1.52;1.08;;;18.10;49.50;;;;;;4919908;29;20199;-80
2023/03/25 05:50:59;;;;;;;1.27;1.17;;;18.10;49.60;;;;;;4920064;29;20199;-81
2023/03/25 05:53:29;;;;;;;1.50;1.10;;;18.10;49.50;;;;;;4920522;29;20211;-81
2023/03/25 05:55:57;;;;;;;1.00;0.93;;;18.20;49.60;;;;;;4919993;29;20291;-81
2023/03/25 05:58:25;;;;;;;2.30;1.13;;;18.20;49.60;;;;;;4921008;29;20203;-81
2023/03/25 06:00:53;;;;;;;1.33;1.08;;;18.20;49.60;;;;;;4922886;29;20208;-81
2023/03/25 06:03:20;;;;;;;1.20;1.10;;;18.10;49.40;;;;;;4928357;29;20215;-81
2023/03/25 06:05:47;;;;;;;1.55;1.10;;;18.20;49.50;;;;;;4940776;29;20211;-82
2023/03/25 06:08:16;;;;;;;1.13;0.98;;;18.20;49.40;;;;;;4941762;29;20605;-82
2023/03/25 06:10:44;;;;;;;1.27;0.90;;;18.20;49.60;;;;;;4925290;29;20199;-82
2023/03/25 06:13:11;;;;;;;1.10;0.98;;;18.20;49.60;;;;;;4925456;29;20219;-82
2023/03/25 06:15:40;;;;;;;2.28;1.30;;;18.20;49.50;;;;;;4925021;29;20291;-82
2023/03/25 06:18:09;;;;;;;1.42;1.23;;;18.20;49.70;;;;;;4924672;29;20243;-82
2023/03/25 06:20:36;;;;;;;1.92;1.00;;;18.20;49.60;;;;;;4923910;29;20238;-81
2023/03/25 06:23:03;;;;;;;1.48;1.10;;;18.20;49.60;;;;;;4924119;29;20345;-81
2023/03/25 06:25:31;;;;;;;1.40;1.20;;;18.20;49.50;;;;;;4924147;29;20198;-81
2023/03/25 06:28:01;;;;;;;1.20;1.10;;;18.30;49.70;;;;;;4927486;29;20219;-81
2023/03/25 06:30:29;;;;;;;1.45;1.10;;;18.20;49.60;;;;;;4914876;29;20196;-81
2023/03/25 06:33:01;;;;;;;1.35;1.20;;;18.30;49.60;;;;;;4926907;29;20291;-81
2023/03/25 06:35:29;;;;;;;1.23;1.13;;;18.30;49.60;;;;;;4910795;29;20235;-81
2023/03/25 06:37:56;;;;;;;1.10;1.00;;;18.30;49.50;;;;;;4925225;29;20239;-81
2023/03/25 06:40:30;;;;;;;1.08;1.00;;;18.30;49.50;;;;;;4911799;29;20199;-81
2023/03/25 06:43:00;;;;;;;1.90;1.10;;;18.40;49.40;;;;;;4925512;29;20278;-81
2023/03/25 06:45:50;;;;;;;2.67;1.38;;;18.40;49.70;;;;;;4938741;29;20215;-81
2023/03/25 06:48:27;;;;;;;1.00;0.98;;;18.50;49.40;;;;;;4926505;29;20199;-81
2023/03/25 06:50:54;;;;;;;1.55;1.00;;;18.50;49.20;;;;;;4926470;29;20207;-81
2023/03/25 06:53:20;;;;;;;2.15;1.30;;;18.60;49.10;;;;;;4925469;29;20199;-81
2023/03/25 06:55:48;;;;;;;1.35;1.08;;;18.60;49.10;;;;;;4924016;29;20282;-81
2023/03/25 06:58:15;;;;;;;2.38;1.02;;;18.70;49.20;;;;;;4923650;29;20223;-81
2023/03/25 07:00:42;;;;;;;1.30;1.20;;;18.80;49.10;;;;;;4909955;29;20203;-80
2023/03/25 07:03:09;;;;;;;1.63;1.20;;;18.90;48.70;;;;;;4911460;29;20623;-81
2023/03/25 07:05:38;;;;;;;1.48;1.02;;;19.00;48.20;;;;;;4926038;29;20207;-80
2023/03/25 07:08:05;;;;;;;1.83;1.27;;;19.20;48.10;;;;;;4924733;29;20306;-80
2023/03/25 07:10:33;;;;;;;1.52;1.20;;;19.20;48.00;;;;;;4925015;29;20283;-80
2023/03/25 07:13:00;;;;;;;1.40;1.20;;;19.30;47.90;;;;;;4924761;29;20717;-81
2023/03/25 07:15:27;;;;;;;1.42;1.10;;;19.30;47.90;;;;;;4925495;29;20204;-81
2023/03/25 07:17:55;;;;;;;1.40;1.27;;;19.30;47.90;;;;;;4924360;29;20247;-81
2023/03/25 07:20:22;;;;;;;1.30;1.00;;;19.30;47.90;;;;;;4925769;29;20689;-80
2023/03/25 07:22:51;;;;;;;1.30;0.93;;;19.30;47.90;;;;;;4926501;29;20284;-80
2023/03/25 07:25:18;;;;;;;1.52;1.30;;;19.30;48.10;;;;;;4925617;29;20265;-80
2023/03/25 07:27:45;;;;;;;1.73;1.20;;;19.30;48.20;;;;;;4925719;29;20654;-80
2023/03/25 07:30:17;;;;;;;1.83;1.10;;;19.20;47.80;;;;;;4926457;29;20204;-80
2023/03/25 07:32:44;;;;;;;1.10;1.00;;;19.30;47.90;;;;;;4925979;29;20210;-80
2023/03/25 07:35:12;;;;;;;1.08;0.82;;;19.40;48.00;;;;;;4926027;29;20191;-80
2023/03/25 07:37:39;;;;;;;1.75;1.20;;;19.40;47.90;;;;;;4925093;29;20227;-81
2023/03/25 07:40:10;;;;;;;1.38;1.10;;;19.40;47.50;;;;;;4925791;29;20199;-80
2023/03/25 07:42:37;;;;;;;2.25;1.02;;;19.40;47.70;;;;;;4925173;29;20192;-80
2023/03/25 07:45:21;;;;;;;1.30;1.20;;;19.50;47.90;;;;;;4925524;29;20191;-81
2023/03/25 07:47:51;;;;;;;1.10;1.00;;;19.50;47.90;;;;;;4924044;29;20226;-81
2023/03/25 07:50:19;;;;;;;1.52;1.13;;;19.60;47.70;;;;;;4923733;29;20207;-80
2023/03/25 07:52:46;;;;;;;1.95;1.00;;;19.80;47.70;;;;;;4923913;29;20207;-81
2023/03/25 07:55:16;;;;;;;1.95;0.90;;;20.00;47.40;;;;;;4924045;29;20217;-82
2023/03/25 07:57:43;;;;;;;1.75;1.05;;;20.20;47.10;;;;;;4923985;29;20254;-82
2023/03/25 08:00:13;;;;;;;1.17;1.00;;;20.50;46.60;;;;;;4923663;29;20210;-81
2023/03/25 08:02:40;;;;;;;0.98;0.93;;;20.80;46.40;;;;;;4908435;29;20226;-81
2023/03/25 08:05:08;;;;;;;1.35;0.82;;;21.00;46.00;;;;;;4924030;29;20199;-81
2023/03/25 08:07:35;;;;;;;1.55;0.90;;;21.30;45.50;;;;;;4924144;29;20726;-81
2023/03/25 08:10:02;;;;;;;1.23;0.88;;;21.40;45.20;;;;;;4924378;29;20195;-81
2023/03/25 08:12:31;;;;;;;0.98;0.95;;;21.50;44.70;;;;;;4908484;29;20663;-81
2023/03/25 08:14:58;;;;;;;1.10;1.00;;;21.50;44.60;;;;;;4924751;29;20214;-82
2023/03/25 08:17:27;;;;;;;0.90;0.90;;;21.40;44.50;;;;;;4925066;29;20258;-81
2023/03/25 08:19:54;;;;;;;1.67;0.93;;;21.30;44.50;;;;;;4924755;29;20199;-82
2023/03/25 08:22:21;;;;;;;1.38;1.10;;;21.40;45.10;;;;;;4908173;29;20235;-82
2023/03/25 08:24:48;;;;;;;0.75;0.75;;;21.50;45.00;;;;;;4924024;29;20316;-82
2023/03/25 08:27:15;;;;;;;0.88;0.85;;;21.70;44.90;;;;;;4923904;29;20226;-82
2023/03/25 08:29:45;;;;;;;1.08;0.98;;;21.80;44.60;;;;;;4924580;29;20655;-81
2023/03/25 08:32:13;;;;;;;1.20;1.08;;;21.80;45.00;;;;;;4923934;29;20203;-81
2023/03/25 08:34:40;;;;;;;1.05;1.00;;;21.80;44.30;;;;;;4924051;29;20208;-81
2023/03/25 08:37:08;;;;;;;1.40;1.10;;;21.70;44.40;;;;;;4923781;29;20231;-82
2023/03/25 08:39:38;;;;;;;0.80;0.80;;;21.60;44.40;;;;;;4922850;29;20573;-81
2023/03/25 08:42:06;;;;;;;1.17;0.98;;;21.60;44.50;;;;;;4922854;29;20207;-81
2023/03/25 08:44:33;;;;;;;1.13;1.00;;;21.50;44.80;;;;;;4922056;29;20195;-82
2023/03/25 08:47:01;;;;;;;1.27;0.90;;;21.40;44.80;;;;;;4922697;29;20227;-82
2023/03/25 08:49:28;;;;;;;1.83;1.10;;;21.30;44.90;;;;;;4922548;29;20270;-82
2023/03/25 08:51:56;;;;;;;0.90;0.73;;;21.30;45.00;;;;;;4922105;29;20207;-81
2023/03/25 08:54:24;;;;;;;1.15;1.08;;;21.20;45.30;;;;;;4923590;29;20681;-81
2023/03/25 08:56:51;;;;;;;1.05;1.00;;;21.20;45.40;;;;;;4925073;29;20223;-82
2023/03/25 08:59:19;;;;;;;0.90;0.90;;;21.20;45.50;;;;;;4924237;29;20274;-81
2023/03/25 09:01:46;;;;;;;0.90;0.90;;;21.20;45.30;;;;;;4925576;29;20234;-84
2023/03/25 09:04:15;;;;;;;0.93;0.93;;;21.20;45.30;;;;;;4922518;29;20645;-84
2023/03/25 09:06:41;;;;;;;0.82;0.82;;;21.20;45.20;;;;;;4921520;29;20563;-84
2023/03/25 09:09:10;;;;;;;1.65;1.08;;;21.20;45.10;;;;;;4907926;29;20224;-84
2023/03/25 09:11:38;;;;;;;1.30;1.20;;;21.00;45.00;;;;;;4926249;29;20621;-84
2023/03/25 09:14:05;;;;;;;1.67;0.90;;;21.10;44.50;;;;;;4924666;29;20253;-84
2023/03/25 09:16:33;;;;;;;2.20;1.00;;;21.00;44.70;;;;;;4924949;29;20219;-84
2023/03/25 09:19:00;;;;;;;2.40;1.00;;;21.00;44.90;;;;;;4909565;29;20313;-84
2023/03/25 09:21:28;;;;;;;1.50;1.13;;;20.90;45.00;;;;;;4909657;29;20207;-84
2023/03/25 09:23:56;;;;;;;5.38;1.17;;;20.90;45.20;;;;;;4924379;29;20195;-84
2023/03/25 09:26:24;;;;;;;1.08;1.00;;;20.90;45.70;;;;;;4924009;29;20227;-85
2023/03/25 09:28:54;;;;;;;2.65;0.90;;;20.90;45.90;;;;;;4924909;29;20195;-85
2023/03/25 09:31:21;;;;;;;1.23;1.10;;;21.00;46.30;;;;;;4926304;29;20250;-85
2023/03/25 09:33:48;;;;;;;1.63;1.10;;;21.00;46.40;;;;;;4926730;29;20195;-85
2023/03/25 09:36:15;;;;;;;2.22;1.23;;;21.10;46.10;;;;;;4926884;29;20305;-85
2023/03/25 09:38:44;;;;;;;1.02;0.98;;;21.10;46.60;;;;;;4926727;29;20227;-84
2023/03/25 09:41:26;;;;;;;2.30;1.00;;;21.10;46.10;;;;;;4944638;29;20197;-85
2023/03/25 09:43:57;;;;;;;1.30;0.95;;;21.10;46.60;;;;;;4941953;29;20208;-85
2023/03/25 09:46:24;;;;;;;2.70;1.10;;;21.10;46.20;;;;;;4960513;29;20248;-86
2023/03/25 09:48:52;;;;;;;1.35;1.17;;;21.10;46.10;;;;;;4943757;29;20199;-85
2023/03/25 09:51:21;;;;;;;1.33;0.80;;;21.20;46.40;;;;;;4944471;29;20192;-85
2023/03/25 09:53:51;;;;;;;1.83;1.23;;;21.20;46.70;;;;;;4944731;29;20223;-85
2023/03/25 09:56:20;;;;;;;0.82;0.82;;;21.30;46.80;;;;;;4944153;29;20249;-85
2023/03/25 09:58:48;;;;;;;2.03;1.10;;;21.40;46.90;;;;;;4944220;29;20231;-85
2023/03/25 10:01:31;;;;;;;2.60;1.10;;;21.40;46.90;;;;;;4944199;29;20213;-85
2023/03/25 10:04:07;;;;;;;1.20;0.95;;;21.50;46.50;;;;;;4938575;29;20213;-85
2023/03/25 10:06:35;;;;;;;3.38;1.20;;;21.50;46.50;;;;;;4929445;29;20227;-85
2023/03/25 10:09:25;;;;;;;1.02;1.02;;;21.60;47.10;;;;;;4912198;29;20591;-85
2023/03/25 10:11:56;;;;;;;1.40;1.30;;;21.60;46.90;;;;;;4922327;29;20195;-85
2023/03/25 10:14:26;;;;;;;1.38;1.17;;;21.70;46.80;;;;;;4927391;29;20199;-85
2023/03/25 10:17:03;;;;;;;1.50;1.08;;;21.70;46.70;;;;;;4926010;29;20223;-85
2023/03/25 10:19:49;;;;;;;1.13;1.00;;;21.80;46.50;;;;;;4925904;29;20219;-85
2023/03/25 10:22:17;;;;;;;3.42;1.30;;;21.80;46.30;;;;;;4923676;29;20191;-85
2023/03/25 10:24:48;;;;;;;1.30;0.98;;;21.90;46.60;;;;;;4923135;29;20276;-84
2023/03/25 10:27:19;;;;;;;2.53;1.20;;;21.90;46.10;;;;;;4922979;29;20726;-85
2023/03/25 10:29:49;;;;;;;2.20;1.15;;;21.90;46.20;;;;;;4923322;29;20200;-85
2023/03/25 10:32:17;;;;;;;3.08;1.10;;;22.00;46.10;;;;;;4923239;29;20203;-84
2023/03/25 10:34:46;;;;;;;2.85;1.00;;;22.00;46.00;;;;;;4922602;29;20294;-85
2023/03/25 10:37:16;;;;;;;1.55;1.05;;;21.90;45.90;;;;;;4922692;29;20227;-85
2023/03/25 10:39:46;;;;;;;1.60;0.98;;;21.90;45.80;;;;;;4923682;29;20208;-84
2023/03/25 10:42:20;;;;;;;1.67;1.10;;;22.00;45.80;;;;;;4923082;29;20196;-85
2023/03/25 10:44:47;;;;;;;1.15;0.90;;;22.00;45.70;;;;;;4922559;29;20259;-85
2023/03/25 10:47:16;;;;;;;1.20;1.10;;;22.10;45.60;;;;;;4922514;29;20219;-85
2023/03/25 10:49:43;;;;;;;1.23;1.13;;;22.10;45.40;;;;;;4922591;29;20231;-85
2023/03/25 10:52:10;;;;;;;1.10;1.10;;;22.20;45.10;;;;;;4906906;29;20565;-85
2023/03/25 10:54:39;;;;;;;1.20;1.10;;;22.20;45.00;;;;;;4922826;29;20203;-85
2023/03/25 10:57:07;;;;;;;1.20;1.10;;;22.10;44.90;;;;;;4922679;29;20381;-82
2023/03/25 10:59:40;;;;;;;2.10;1.00;;;22.10;45.20;;;;;;4922063;29;20230;-82
2023/03/25 11:02:12;;;;;;;1.00;1.00;;;22.10;45.10;;;;;;4923049;29;20306;-81
2023/03/25 11:04:42;;;;;;;1.83;1.42;;;22.10;45.20;;;;;;4922540;29;20190;-83
2023/03/25 11:07:16;;;;;;;1.20;0.93;;;22.10;45.40;;;;;;4922561;29;20247;-83
2023/03/25 11:09:43;;;;;;;1.45;0.80;;;22.10;45.00;;;;;;4923230;29;20211;-82
2023/03/25 11:12:11;;;;;;;1.30;1.20;;;22.20;44.80;;;;;;4923065;29;20234;-83
2023/03/25 11:14:40;;;;;;;1.38;1.27;;;22.30;44.90;;;;;;4908143;29;20204;-82
2023/03/25 11:17:11;;;;;;;2.72;1.10;;;22.40;44.90;;;;;;4924202;29;20231;-83
2023/03/25 11:19:40;;;;;;;1.25;1.15;;;22.40;44.70;;;;;;4922969;29;20215;-82
2023/03/25 11:22:09;;;;;;;1.20;1.10;;;22.50;44.60;;;;;;4908815;29;20301;-82
2023/03/25 11:24:41;;;;;;;1.83;0.80;;;22.50;44.40;;;;;;4923004;29;20208;-82
2023/03/25 11:27:08;;;;;;;1.60;1.10;;;22.50;44.10;;;;;;4923624;29;20283;-82
2023/03/25 11:29:36;;;;;;;2.45;1.05;;;22.50;44.20;;;;;;4923358;29;20294;-82
2023/03/25 11:32:12;;;;;;;1.33;1.00;;;22.50;44.10;;;;;;4923412;29;20571;-83
2023/03/25 11:34:41;;;;;;;2.67;1.20;;;22.50;44.10;;;;;;4922863;29;20192;-83
2023/03/25 11:37:15;;;;;;;1.13;1.00;;;22.50;44.10;;;;;;4923311;29;20321;-83
2023/03/25 11:39:43;;;;;;;1.23;1.00;;;22.50;44.30;;;;;;4923347;29;20220;-83
2023/03/25 11:42:15;;;;;;;1.45;1.20;;;22.50;44.40;;;;;;4923740;29;20195;-83
2023/03/25 11:44:43;;;;;;;1.20;1.10;;;22.40;44.30;;;;;;4923150;29;20278;-83
2023/03/25 11:47:11;;;;;;;1.35;1.00;;;22.50;44.40;;;;;;4922389;29;20224;-83
2023/03/25 11:49:40;;;;;;;0.80;0.80;;;22.50;44.20;;;;;;4921866;29;20206;-83
2023/03/25 11:52:08;;;;;;;1.05;1.00;;;22.50;44.10;;;;;;4922257;29;20239;-83
2023/03/25 11:54:36;;;;;;;1.23;1.13;;;22.50;44.10;;;;;;4922273;29;20231;-83
2023/03/25 11:57:03;;;;;;;1.00;1.00;;;22.50;44.30;;;;;;4922031;29;20223;-83
2023/03/25 11:59:36;;;;;;;1.20;1.15;;;22.40;44.10;;;;;;4921874;29;20274;-83
2023/03/25 12:02:20;;;;;;;2.42;1.13;;;22.40;44.00;;;;;;4921666;29;20203;-83
2023/03/25 12:04:58;;;;;;;0.90;0.90;;;22.50;44.20;;;;;;4921496;29;20196;-83
2023/03/25 12:07:25;;;;;;;1.20;1.10;;;22.50;44.00;;;;;;4921849;29;20279;-83
2023/03/25 12:09:56;;;;;;;1.08;0.98;;;22.50;43.90;;;;;;4920985;29;20195;-83
2023/03/25 12:12:40;;;;;;;1.65;1.02;;;22.60;44.00;;;;;;4921444;29;20210;-83
2023/03/25 12:15:15;;;;;;;1.20;1.10;;;22.50;43.90;;;;;;4921246;29;20195;-82
2023/03/25 12:17:50;;;;;;;1.15;1.02;;;22.60;43.80;;;;;;4922391;29;20226;-83
2023/03/25 12:20:23;;;;;;;1.10;1.00;;;22.60;43.80;;;;;;4953753;23;20226;-79
2023/03/25 12:22:58;;;;;;;0.93;0.90;;;22.60;43.70;;;;;;4977124;28;20182;-79
2023/03/25 12:25:27;;;;;;;1.75;1.00;;;22.60;43.70;;;;;;4977675;28;20522;-79
2023/03/25 12:28:04;;;;;;;1.05;1.00;;;22.60;43.70;;;;;;4976908;28;20594;-79
2023/03/25 12:30:38;;;;;;;0.90;0.90;;;22.60;43.70;;;;;;4976521;28;20184;-79
2023/03/25 12:33:13;;;;;;;1.52;0.93;;;22.60;43.60;;;;;;4959605;28;20198;-79
2023/03/25 12:35:42;;;;;;;0.93;0.93;;;22.70;43.70;;;;;;4976142;28;20181;-78
2023/03/25 12:38:22;;;;;;;1.00;1.00;;;22.60;43.40;;;;;;4975004;28;20550;-79
2023/03/25 12:40:58;;;;;;;0.98;0.95;;;22.70;43.70;;;;;;4975977;28;20190;-79
2023/03/25 12:43:29;;;;;;;1.00;0.90;;;22.70;43.50;;;;;;4975138;28;20205;-78
2023/03/25 12:46:08;;;;;;;0.93;0.85;;;22.60;43.20;;;;;;4975137;28;20198;-78
2023/03/25 12:48:50;;;;;;;0.90;0.90;;;22.60;43.50;;;;;;4974713;28;20201;-78
2023/03/25 12:51:22;;;;;;;1.33;1.10;;;22.60;43.60;;;;;;4974980;28;20278;-78
2023/03/25 12:53:55;;;;;;;0.85;0.85;;;22.60;43.60;;;;;;4974538;28;20194;-78
2023/03/25 12:56:42;;;;;;;1.27;0.95;;;22.60;43.60;;;;;;4958703;28;20226;-78
2023/03/25 12:59:37;;;;;;;1.08;0.98;;;22.50;43.60;;;;;;4976178;28;20253;-78
2023/03/25 13:02:13;;;;;;;0.95;0.95;;;22.50;43.80;;;;;;4974783;28;20208;-78
2023/03/25 13:04:54;;;;;;;1.00;0.90;;;22.50;43.70;;;;;;4977226;28;20648;-78
2023/03/25 13:07:22;;;;;;;1.00;1.00;;;22.50;43.50;;;;;;4974745;28;20244;-78
2023/03/25 13:09:56;;;;;;;1.30;1.00;;;22.50;43.60;;;;;;4974774;28;20209;-78